Orbital elements of FENGYUN 1C DEB
| Launched | 9 May 1999 |
| Flight ended | – |
| Launch site | Taiyuan Space Center, PRC |
| Owner | People's Republic of China |
| NORAD ID | 36188 |
| Date fetched |
Epoch osculation |
Inc. [°] |
Ecc. | RA asc node [hr] |
Arg Peri. [°] |
Mean anom [°] |
Mean motion [rev/day] |
Abs. mag |
| Date fetched |
Epoch osculation |
Inc. [°] |
Ecc. | RA asc node [hr] |
Arg Peri. [°] |
Mean anom [°] |
Mean motion [rev/day] |
Abs. mag |
| 2026 May 09 17:57 | 2026 May 04 18:07:44 | 98.5851 | 0.00451 | 15.7244 | 219.7126 | 140.0774 | 14.64669 | – |
| 2026 May 08 17:57 | 2026 May 04 18:07:44 | 98.5851 | 0.00451 | 15.7244 | 219.7126 | 140.0774 | 14.64669 | – |
| 2026 May 07 17:58 | 2026 May 04 18:07:44 | 98.5851 | 0.00451 | 15.7244 | 219.7126 | 140.0774 | 14.64669 | – |
| 2026 May 06 17:57 | 2026 May 04 18:07:44 | 98.5851 | 0.00451 | 15.7244 | 219.7126 | 140.0774 | 14.64669 | – |
| 2026 May 05 17:57 | 2026 May 04 18:07:44 | 98.5851 | 0.00451 | 15.7244 | 219.7126 | 140.0774 | 14.64669 | – |
| 2026 May 04 17:57 | 2026 Apr 27 05:45:54 | 98.5847 | 0.00448 | 15.2019 | 243.1294 | 140.0774 | 14.64669 | – |
| 2026 May 03 17:57 | 2026 Apr 27 05:45:54 | 98.5847 | 0.00448 | 15.2019 | 243.1294 | 140.0774 | 14.64669 | – |
| 2026 May 02 17:57 | 2026 Apr 27 05:45:54 | 98.5847 | 0.00448 | 15.2019 | 243.1294 | 140.0774 | 14.64669 | – |
| 2026 May 01 17:56 | 2026 Apr 27 05:45:54 | 98.5847 | 0.00448 | 15.2019 | 243.1294 | 140.0774 | 14.64669 | – |
| 2026 Apr 30 17:56 | 2026 Apr 27 05:45:54 | 98.5847 | 0.00448 | 15.2019 | 243.1294 | 140.0774 | 14.64669 | – |
| 2026 Apr 29 17:57 | 2026 Apr 22 06:03:25 | 98.5833 | 0.00442 | 14.8552 | 258.6943 | 140.0774 | 14.64669 | – |
| 2026 Apr 28 17:56 | 2026 Apr 22 06:03:25 | 98.5833 | 0.00442 | 14.8552 | 258.6943 | 140.0774 | 14.64669 | – |
| 2026 Apr 27 17:58 | 2026 Apr 22 06:03:25 | 98.5833 | 0.00442 | 14.8552 | 258.6943 | 140.0774 | 14.64669 | – |
| 2026 Apr 26 17:58 | 2026 Apr 22 06:03:25 | 98.5833 | 0.00442 | 14.8552 | 258.6943 | 140.0774 | 14.64669 | – |
| 2026 Apr 25 17:58 | 2026 Apr 22 06:03:25 | 98.5833 | 0.00442 | 14.8552 | 258.6943 | 140.0774 | 14.64669 | – |
| 2026 Apr 24 17:59 | 2026 Apr 22 06:03:25 | 98.5833 | 0.00442 | 14.8552 | 258.6943 | 140.0774 | 14.64669 | – |
| 2026 Apr 23 17:57 | 2026 Apr 19 00:58:52 | 98.5822 | 0.00441 | 14.6319 | 268.8273 | 140.0774 | 14.64669 | – |
| 2026 Apr 22 17:57 | 2026 Apr 19 00:58:52 | 98.5822 | 0.00441 | 14.6319 | 268.8273 | 140.0774 | 14.64669 | – |
| 2026 Apr 21 17:57 | 2026 Apr 19 00:58:52 | 98.5822 | 0.00441 | 14.6319 | 268.8273 | 140.0774 | 14.64669 | – |
| 2026 Apr 20 17:57 | 2026 Apr 19 00:58:52 | 98.5822 | 0.00441 | 14.6319 | 268.8273 | 140.0774 | 14.64669 | – |
| 2026 Apr 19 17:58 | 2026 Apr 19 00:58:52 | 98.5822 | 0.00441 | 14.6319 | 268.8273 | 140.0774 | 14.64669 | – |
| 2026 Apr 18 17:56 | 2026 Apr 13 05:34:58 | 98.5816 | 0.00435 | 14.2285 | 287.5036 | 140.0774 | 14.64669 | – |
| 2026 Apr 16 17:57 | 2026 Apr 13 05:34:58 | 98.5816 | 0.00435 | 14.2285 | 287.5036 | 140.0774 | 14.64669 | – |
| 2026 Apr 14 17:57 | 2026 Apr 13 05:34:58 | 98.5816 | 0.00435 | 14.2285 | 287.5036 | 140.0774 | 14.64669 | – |
| 2026 Apr 13 17:57 | 2026 Apr 13 05:34:58 | 98.5816 | 0.00435 | 14.2285 | 287.5036 | 140.0774 | 14.64669 | – |
| 2026 Apr 12 17:57 | 2026 Apr 08 00:56:21 | 98.5817 | 0.00433 | 13.8677 | 304.1753 | 140.0774 | 14.64669 | – |